createdAt,value
2018-07-16T00:00:40.185Z,17.77
2018-07-16T00:01:40.084Z,17.74
2018-07-16T00:03:32.864Z,17.68
2018-07-16T00:04:32.786Z,17.62
2018-07-16T00:06:25.565Z,17.60
2018-07-16T00:07:25.511Z,17.49
2018-07-16T00:09:18.312Z,17.54
2018-07-16T00:10:18.238Z,17.46
2018-07-16T00:12:11.008Z,17.40
2018-07-16T00:13:10.949Z,17.38
2018-07-16T00:15:03.735Z,17.35
2018-07-16T00:16:03.654Z,17.39
2018-07-16T00:17:56.431Z,17.38
2018-07-16T00:18:56.366Z,17.35
2018-07-16T00:20:49.169Z,17.35
2018-07-16T00:21:49.094Z,17.45
2018-07-16T00:23:41.880Z,17.25
2018-07-16T00:24:41.812Z,17.25
2018-07-16T00:26:34.597Z,17.20
2018-07-16T00:27:34.523Z,17.27
2018-07-16T00:29:27.303Z,17.21
2018-07-16T00:30:27.241Z,17.35
2018-07-16T00:32:20.026Z,17.20
2018-07-16T00:33:19.942Z,17.25
2018-07-16T00:35:12.727Z,17.07
2018-07-16T00:36:12.655Z,17.10
2018-07-16T00:38:05.436Z,17.07
2018-07-16T00:39:05.366Z,17.09
2018-07-16T00:40:58.162Z,17.07
2018-07-16T00:41:58.091Z,16.98
2018-07-16T00:43:50.859Z,17.00
2018-07-16T00:44:50.797Z,17.07
2018-07-16T00:46:43.594Z,17.02
2018-07-16T00:47:43.512Z,17.00
2018-07-16T00:49:36.277Z,17.00
2018-07-16T00:50:36.219Z,16.95
2018-07-16T00:52:29.028Z,17.09
2018-07-16T00:53:28.932Z,17.05
2018-07-16T00:55:21.713Z,17.05
2018-07-16T00:56:21.686Z,17.00
2018-07-16T00:58:14.445Z,17.02
2018-07-16T00:59:14.368Z,17.02
2018-07-16T01:01:07.210Z,16.99
2018-07-16T01:02:07.099Z,16.99
2018-07-16T01:03:59.863Z,16.98
2018-07-16T01:04:59.799Z,16.95
2018-07-16T01:06:52.603Z,16.88
2018-07-16T01:07:52.538Z,17.03
2018-07-16T01:09:45.318Z,17.02
2018-07-16T01:10:45.251Z,16.99
2018-07-16T01:12:38.023Z,17.00
2018-07-16T01:13:37.951Z,16.88
2018-07-16T01:15:30.721Z,16.87
2018-07-16T01:16:30.668Z,16.82
2018-07-16T01:18:23.463Z,16.77
2018-07-16T01:19:23.389Z,16.81
2018-07-16T01:21:16.185Z,16.81
2018-07-16T01:22:16.103Z,16.67
2018-07-16T01:24:08.887Z,16.82
2018-07-16T01:25:08.810Z,16.65
2018-07-16T01:27:01.645Z,16.65
2018-07-16T01:28:01.551Z,16.77
2018-07-16T01:29:54.328Z,16.70
2018-07-16T01:30:54.260Z,16.70
2018-07-16T01:32:47.029Z,16.51
2018-07-16T01:33:46.949Z,16.60
2018-07-16T01:35:39.748Z,16.54
2018-07-16T01:36:39.672Z,16.48
2018-07-16T01:38:32.467Z,16.50
2018-07-16T01:39:32.387Z,16.48
2018-07-16T01:41:25.158Z,16.41
2018-07-16T01:42:25.154Z,16.47
2018-07-16T01:44:17.877Z,16.47
2018-07-16T01:45:17.811Z,16.44
2018-07-16T01:47:10.578Z,16.42
2018-07-16T01:48:10.500Z,16.51
2018-07-16T01:50:03.292Z,16.51
2018-07-16T01:51:03.228Z,16.51
2018-07-16T01:52:56.014Z,16.45
2018-07-16T01:53:55.931Z,16.42
2018-07-16T01:55:48.738Z,16.34
2018-07-16T01:56:48.648Z,16.32
2018-07-16T01:58:41.432Z,16.29
2018-07-16T01:59:41.358Z,16.27
2018-07-16T02:01:34.158Z,16.37
2018-07-16T02:02:34.078Z,16.36
2018-07-16T02:04:26.867Z,16.29
2018-07-16T02:05:26.803Z,16.32
2018-07-16T02:07:19.599Z,16.32
2018-07-16T02:08:19.525Z,16.33
2018-07-16T02:10:12.311Z,16.26
2018-07-16T02:11:12.242Z,16.16
2018-07-16T02:13:04.998Z,16.18
2018-07-16T02:14:04.944Z,16.18
2018-07-16T02:15:57.741Z,16.22
2018-07-16T02:16:57.643Z,16.14
2018-07-16T02:18:50.464Z,16.10
2018-07-16T02:19:50.366Z,16.08
2018-07-16T02:21:43.185Z,16.01
2018-07-16T02:22:43.094Z,16.07
2018-07-16T02:24:35.891Z,16.07
2018-07-16T02:25:35.816Z,15.98
2018-07-16T02:27:28.596Z,16.06
2018-07-16T02:28:28.538Z,15.95
2018-07-16T02:30:21.318Z,15.89
2018-07-16T02:31:21.243Z,15.88
2018-07-16T02:33:14.144Z,15.85
2018-07-16T02:34:13.983Z,15.95
2018-07-16T02:36:06.773Z,15.89
2018-07-16T02:37:06.699Z,15.80
2018-07-16T02:38:59.513Z,15.89
2018-07-16T02:39:59.429Z,15.88
2018-07-16T02:41:52.224Z,15.84
2018-07-16T02:42:52.132Z,15.84
2018-07-16T02:44:44.892Z,15.76
2018-07-16T02:45:44.831Z,15.76
2018-07-16T02:47:37.620Z,15.74
2018-07-16T02:48:37.540Z,15.80
2018-07-16T02:50:30.355Z,15.77
2018-07-16T02:51:30.280Z,15.77
2018-07-16T02:53:23.069Z,15.78
2018-07-16T02:54:23.008Z,15.77
2018-07-16T02:56:15.832Z,15.81
2018-07-16T02:57:15.690Z,15.73
2018-07-16T02:59:08.473Z,15.71
2018-07-16T03:00:08.404Z,15.74
2018-07-16T03:02:01.199Z,15.77
2018-07-16T03:03:01.129Z,15.74
2018-07-16T03:04:53.917Z,15.77
2018-07-16T03:05:53.855Z,15.68
2018-07-16T03:07:46.667Z,15.67
2018-07-16T03:08:46.580Z,15.68
2018-07-16T03:10:39.367Z,15.68
2018-07-16T03:11:39.290Z,15.62
2018-07-16T03:13:32.078Z,15.53
2018-07-16T03:14:32.027Z,15.58
2018-07-16T03:16:24.812Z,15.60
2018-07-16T03:17:24.744Z,15.64
2018-07-16T03:19:17.515Z,15.67
2018-07-16T03:20:17.452Z,15.62
2018-07-16T03:22:10.278Z,15.67
2018-07-16T03:23:10.170Z,15.64
2018-07-16T03:25:02.949Z,15.64
2018-07-16T03:26:02.877Z,15.68
2018-07-16T03:27:55.665Z,15.67
2018-07-16T03:28:55.591Z,15.66
2018-07-16T03:30:48.387Z,15.67
2018-07-16T03:31:48.300Z,15.70
2018-07-16T03:33:41.073Z,15.64
2018-07-16T03:34:41.004Z,15.64
2018-07-16T03:36:33.780Z,15.59
2018-07-16T03:37:33.702Z,15.74
2018-07-16T03:39:26.502Z,15.74
2018-07-16T03:40:26.419Z,15.68
2018-07-16T03:42:19.202Z,15.80
2018-07-16T03:43:19.126Z,15.76
2018-07-16T03:45:11.904Z,15.84
2018-07-16T03:46:11.840Z,15.81
2018-07-16T03:48:04.652Z,15.89
2018-07-16T03:49:04.546Z,15.89
2018-07-16T03:50:57.339Z,15.88
2018-07-16T03:51:57.256Z,15.86
2018-07-16T03:53:50.039Z,15.85
2018-07-16T03:54:49.969Z,15.81
2018-07-16T03:56:42.746Z,15.84
2018-07-16T03:57:42.688Z,15.86
2018-07-16T03:59:35.469Z,15.86
2018-07-16T04:00:35.402Z,16.08
2018-07-16T04:02:28.188Z,16.01
2018-07-16T04:03:28.113Z,16.03
2018-07-16T04:05:20.885Z,16.10
2018-07-16T04:06:20.824Z,16.14
2018-07-16T04:08:13.604Z,16.14
2018-07-16T04:09:13.533Z,16.10
2018-07-16T04:11:06.335Z,16.17
2018-07-16T04:12:06.321Z,16.18
2018-07-16T04:13:59.062Z,16.44
2018-07-16T04:14:58.993Z,16.51
2018-07-16T04:16:51.769Z,16.45
2018-07-16T04:17:51.703Z,16.48
2018-07-16T04:19:44.503Z,16.42
2018-07-16T04:20:44.422Z,16.45
2018-07-16T04:22:37.236Z,16.45
2018-07-16T04:23:37.171Z,16.52
2018-07-16T04:25:29.979Z,16.50
2018-07-16T04:26:29.878Z,16.55
2018-07-16T04:28:22.771Z,16.54
2018-07-16T04:29:22.717Z,16.59
2018-07-16T04:31:15.468Z,16.77
2018-07-16T04:32:15.395Z,16.65
2018-07-16T04:34:08.210Z,16.77
2018-07-16T04:35:08.134Z,16.80
2018-07-16T04:37:00.958Z,16.78
2018-07-16T04:38:00.880Z,16.92
2018-07-16T04:39:53.730Z,17.02
2018-07-16T04:40:53.617Z,16.99
2018-07-16T04:42:46.392Z,17.09
2018-07-16T04:43:46.327Z,17.25
2018-07-16T04:45:39.116Z,17.33
2018-07-16T04:46:39.064Z,17.38
2018-07-16T04:48:31.826Z,17.45
2018-07-16T04:49:31.763Z,17.47
2018-07-16T04:51:24.551Z,17.58
2018-07-16T04:52:24.472Z,17.57
2018-07-16T04:54:17.245Z,17.96
2018-07-16T04:55:17.250Z,18.11
2018-07-16T04:57:09.966Z,18.31
2018-07-16T04:58:09.897Z,18.49
2018-07-16T05:00:02.706Z,18.71
2018-07-16T05:01:02.637Z,18.86
2018-07-16T05:02:55.400Z,18.96
2018-07-16T05:03:55.311Z,19.27
2018-07-16T05:05:48.104Z,19.98
2018-07-16T05:06:48.043Z,20.88
2018-07-16T05:08:40.820Z,22.39
2018-07-16T05:09:40.756Z,23.14
2018-07-16T05:11:33.566Z,24.18
2018-07-16T05:12:33.487Z,24.86
2018-07-16T05:14:26.270Z,25.71
2018-07-16T05:15:26.209Z,26.09
2018-07-16T05:17:19.092Z,27.08
2018-07-16T05:18:19.056Z,27.08
2018-07-16T05:20:11.774Z,27.49
2018-07-16T05:21:11.706Z,27.66
2018-07-16T05:23:04.529Z,27.78
2018-07-16T05:24:04.505Z,27.99
2018-07-16T05:25:57.234Z,28.21
2018-07-16T05:26:57.161Z,28.43
2018-07-16T05:28:49.939Z,28.13
2018-07-16T05:29:49.889Z,28.17
2018-07-16T05:31:42.759Z,28.39
2018-07-16T05:32:42.827Z,28.67
2018-07-16T05:34:35.435Z,28.42
2018-07-16T05:35:35.365Z,28.54
2018-07-16T05:37:28.165Z,28.52
2018-07-16T05:38:28.146Z,28.67
2018-07-16T05:40:20.896Z,28.79
2018-07-16T05:41:20.845Z,28.94
2018-07-16T05:43:13.698Z,29.18
2018-07-16T05:44:13.588Z,29.27
2018-07-16T05:46:06.410Z,29.57
2018-07-16T05:47:06.368Z,29.54
2018-07-16T05:48:59.138Z,29.63
2018-07-16T05:49:59.070Z,29.45
2018-07-16T05:51:51.918Z,29.62
2018-07-16T05:52:51.856Z,29.74
2018-07-16T05:54:44.659Z,30.00
2018-07-16T05:55:44.609Z,30.04
2018-07-16T05:57:37.434Z,30.30
2018-07-16T05:58:37.343Z,30.51
2018-07-16T06:00:30.137Z,30.54
2018-07-16T06:01:30.098Z,30.56
2018-07-16T06:03:22.921Z,30.72
2018-07-16T06:04:22.845Z,30.75
2018-07-16T06:06:15.637Z,30.79
2018-07-16T06:07:15.624Z,30.72
2018-07-16T06:09:08.407Z,30.72
2018-07-16T06:10:08.320Z,30.72
2018-07-16T06:12:01.152Z,30.79
2018-07-16T06:13:01.072Z,30.75
2018-07-16T06:14:53.880Z,30.79
2018-07-16T06:15:53.864Z,30.82
2018-07-16T06:17:46.710Z,30.93
2018-07-16T06:18:46.592Z,30.96
2018-07-16T06:20:39.444Z,30.78
2018-07-16T06:21:39.385Z,30.96
2018-07-16T06:23:32.241Z,31.04
2018-07-16T06:24:32.182Z,31.03
2018-07-16T06:26:24.971Z,31.16
2018-07-16T06:27:24.975Z,31.18
2018-07-16T06:29:17.733Z,31.35
2018-07-16T06:30:17.680Z,31.53
2018-07-16T06:32:10.498Z,31.52
2018-07-16T06:33:10.445Z,31.67
2018-07-16T06:35:03.269Z,31.91
2018-07-16T06:36:03.204Z,31.99
2018-07-16T06:37:56.086Z,31.84
2018-07-16T06:38:55.989Z,31.68
2018-07-16T06:40:48.870Z,31.49
2018-07-16T06:41:48.758Z,31.35
2018-07-16T06:43:41.629Z,31.59
2018-07-16T06:44:41.587Z,31.54
2018-07-16T06:46:34.393Z,31.71
2018-07-16T06:47:34.333Z,31.90
2018-07-16T06:49:27.172Z,31.99
2018-07-16T06:50:27.103Z,32.02
2018-07-16T06:52:19.933Z,30.90
2018-07-16T06:53:19.889Z,30.40
2018-07-16T06:55:12.754Z,30.56
2018-07-16T06:56:12.643Z,30.64
2018-07-16T06:58:05.465Z,31.46
2018-07-16T06:59:05.421Z,31.67
2018-07-16T07:00:58.251Z,31.90
2018-07-16T07:01:58.211Z,31.97
2018-07-16T07:03:51.019Z,32.09
2018-07-16T07:04:50.987Z,32.12
2018-07-16T07:06:43.854Z,32.28
2018-07-16T07:07:43.753Z,32.25
2018-07-16T07:09:36.577Z,32.29
2018-07-16T07:10:36.522Z,32.51
2018-07-16T07:12:29.379Z,32.41
2018-07-16T07:13:29.325Z,32.16
2018-07-16T07:15:22.168Z,32.13
2018-07-16T07:16:22.112Z,32.27
2018-07-16T07:18:15.216Z,32.39
2018-07-16T07:19:15.057Z,32.51
2018-07-16T07:21:07.890Z,32.77
2018-07-16T07:22:07.808Z,32.73
2018-07-16T07:24:00.614Z,32.40
2018-07-16T07:25:00.569Z,32.44
2018-07-16T07:26:53.419Z,32.68
2018-07-16T07:27:53.376Z,32.83
2018-07-16T07:29:46.177Z,33.31
2018-07-16T07:30:46.131Z,33.43
2018-07-16T07:32:38.987Z,33.44
2018-07-16T07:33:38.936Z,33.65
2018-07-16T07:35:31.824Z,33.65
2018-07-16T07:36:31.694Z,33.65
2018-07-16T07:38:24.525Z,33.50
2018-07-16T07:39:24.485Z,33.81
2018-07-16T07:41:17.391Z,33.60
2018-07-16T07:42:17.247Z,33.43
2018-07-16T07:44:10.086Z,33.47
2018-07-16T07:45:10.022Z,33.43
2018-07-16T07:47:02.869Z,33.41
2018-07-16T07:48:02.812Z,33.34
2018-07-16T07:49:55.658Z,33.06
2018-07-16T07:50:55.598Z,33.41
2018-07-16T07:52:48.417Z,33.44
2018-07-16T07:53:48.414Z,33.60
2018-07-16T07:55:41.265Z,33.79
2018-07-16T07:56:41.126Z,33.75
2018-07-16T07:58:34.016Z,33.84
2018-07-16T07:59:33.923Z,34.01
2018-07-16T08:01:26.728Z,34.55
2018-07-16T08:02:26.682Z,34.26
2018-07-16T08:04:19.528Z,34.36
2018-07-16T08:05:19.476Z,34.37
2018-07-16T08:07:12.331Z,34.06
2018-07-16T08:08:12.270Z,34.00
2018-07-16T08:10:05.132Z,34.03
2018-07-16T08:11:05.048Z,34.01
2018-07-16T08:12:57.889Z,34.11
2018-07-16T08:13:57.836Z,34.16
2018-07-16T08:15:50.676Z,33.99
2018-07-16T08:16:50.606Z,34.16
2018-07-16T08:18:43.431Z,34.03
2018-07-16T08:19:43.471Z,34.21
2018-07-16T08:21:36.207Z,34.06
2018-07-16T08:22:36.159Z,33.90
2018-07-16T08:24:29.028Z,33.63
2018-07-16T08:25:28.976Z,33.70
2018-07-16T08:27:21.944Z,34.01
2018-07-16T08:28:21.896Z,34.08
2018-07-16T08:30:14.747Z,34.14
2018-07-16T08:31:14.674Z,34.21
2018-07-16T08:33:07.523Z,34.40
2018-07-16T08:34:07.484Z,34.27
2018-07-16T08:36:00.400Z,34.24
2018-07-16T08:37:00.265Z,34.34
2018-07-16T08:38:53.123Z,34.30
2018-07-16T08:39:53.065Z,34.33
2018-07-16T08:41:45.908Z,34.38
2018-07-16T08:42:45.864Z,34.37
2018-07-16T08:44:38.677Z,34.23
2018-07-16T08:45:38.661Z,34.46
2018-07-16T08:47:31.865Z,34.40
2018-07-16T08:48:31.820Z,34.50
2018-07-16T08:50:24.667Z,34.38
2018-07-16T08:51:24.618Z,34.33
2018-07-16T08:53:17.429Z,33.93
2018-07-16T08:54:17.388Z,33.92
2018-07-16T08:56:10.213Z,33.81
2018-07-16T08:57:10.187Z,34.01
2018-07-16T08:59:03.021Z,34.05
2018-07-16T09:00:02.989Z,34.14
2018-07-16T09:01:55.820Z,34.23
2018-07-16T09:02:55.753Z,33.79
2018-07-16T09:04:48.597Z,33.60
2018-07-16T09:05:48.540Z,33.81
2018-07-16T09:07:41.383Z,33.82
2018-07-16T09:08:41.324Z,33.89
2018-07-16T09:10:34.143Z,33.97
2018-07-16T09:11:34.096Z,33.89
2018-07-16T09:13:27.044Z,33.96
2018-07-16T09:14:26.859Z,34.00
2018-07-16T09:16:19.816Z,33.78
2018-07-16T09:17:19.696Z,33.93
2018-07-16T09:19:12.562Z,34.05
2018-07-16T09:20:12.461Z,33.92
2018-07-16T09:22:05.357Z,34.00
2018-07-16T09:23:05.292Z,34.01
2018-07-16T09:24:58.152Z,33.84
2018-07-16T09:25:58.103Z,33.82
2018-07-16T09:27:50.977Z,34.00
2018-07-16T09:28:50.881Z,34.05
2018-07-16T09:30:43.747Z,34.12
2018-07-16T09:31:43.665Z,34.03
2018-07-16T09:33:36.496Z,33.82
2018-07-16T09:34:36.468Z,33.63
2018-07-16T09:36:29.283Z,33.45
2018-07-16T09:37:29.245Z,33.60
2018-07-16T09:39:22.073Z,33.78
2018-07-16T09:40:22.005Z,33.79
2018-07-16T09:42:14.868Z,34.00
2018-07-16T09:43:14.820Z,33.99
2018-07-16T09:45:07.653Z,33.86
2018-07-16T09:46:07.611Z,33.79
2018-07-16T09:48:00.443Z,33.65
2018-07-16T09:49:00.386Z,33.60
2018-07-16T09:50:53.232Z,33.59
2018-07-16T09:51:53.185Z,33.57
2018-07-16T09:53:46.052Z,33.77
2018-07-16T09:54:46.001Z,33.94
2018-07-16T09:56:38.871Z,34.03
2018-07-16T09:57:38.807Z,33.96
2018-07-16T09:59:31.628Z,34.08
2018-07-16T10:00:31.581Z,33.99
2018-07-16T10:02:24.463Z,34.19
2018-07-16T10:03:24.412Z,34.30
2018-07-16T10:05:17.236Z,34.34
2018-07-16T10:06:17.194Z,34.30
2018-07-16T10:08:35.512Z,34.05
2018-07-16T10:09:35.425Z,34.06
2018-07-16T10:11:28.239Z,33.93
2018-07-16T10:12:28.184Z,34.01
2018-07-16T10:14:21.012Z,33.86
2018-07-16T10:15:20.942Z,33.78
2018-07-16T10:17:13.779Z,33.74
2018-07-16T10:18:13.695Z,33.70
2018-07-16T10:20:06.556Z,33.31
2018-07-16T10:21:06.448Z,33.37
2018-07-16T10:22:59.269Z,33.59
2018-07-16T10:23:59.212Z,33.78
2018-07-16T10:25:52.062Z,33.77
2018-07-16T10:26:51.987Z,34.00
2018-07-16T10:28:44.816Z,34.06
2018-07-16T10:29:44.753Z,33.99
2018-07-16T10:31:37.568Z,33.50
2018-07-16T10:32:37.524Z,33.50
2018-07-16T10:34:30.364Z,33.44
2018-07-16T10:35:30.297Z,33.31
2018-07-16T10:37:23.105Z,33.40
2018-07-16T10:38:23.051Z,33.49
2018-07-16T10:40:15.862Z,33.70
2018-07-16T10:41:15.818Z,33.81
2018-07-16T10:43:08.618Z,33.87
2018-07-16T10:44:08.595Z,34.05
2018-07-16T10:46:01.359Z,33.66
2018-07-16T10:47:01.324Z,33.40
2018-07-16T10:48:54.139Z,33.53
2018-07-16T10:49:54.080Z,33.59
2018-07-16T10:51:46.905Z,33.63
2018-07-16T10:52:46.859Z,33.71
2018-07-16T10:54:39.679Z,33.21
2018-07-16T10:55:39.624Z,33.02
2018-07-16T10:57:32.428Z,33.12
2018-07-16T10:58:32.383Z,33.12
2018-07-16T11:00:25.200Z,33.22
2018-07-16T11:01:25.149Z,33.09
2018-07-16T11:03:18.004Z,33.21
2018-07-16T11:04:17.934Z,33.29
2018-07-16T11:06:10.725Z,33.50
2018-07-16T11:07:10.687Z,33.62
2018-07-16T11:09:03.504Z,33.70
2018-07-16T11:10:03.451Z,33.44
2018-07-16T11:11:56.277Z,33.44
2018-07-16T11:12:56.208Z,33.53
2018-07-16T11:14:49.041Z,33.72
2018-07-16T11:15:48.989Z,33.55
2018-07-16T11:17:41.790Z,33.09
2018-07-16T11:18:41.739Z,32.91
2018-07-16T11:20:34.578Z,33.02
2018-07-16T11:21:34.511Z,33.11
2018-07-16T11:23:27.309Z,33.21
2018-07-16T11:24:27.271Z,33.29
2018-07-16T11:26:20.124Z,33.17
2018-07-16T11:27:20.056Z,33.17
2018-07-16T11:29:12.962Z,33.28
2018-07-16T11:30:12.848Z,33.12
2018-07-16T11:32:05.621Z,32.96
2018-07-16T11:33:05.575Z,32.90
2018-07-16T11:34:58.399Z,32.84
2018-07-16T11:35:58.341Z,32.65
2018-07-16T11:37:51.148Z,32.62
2018-07-16T11:38:51.094Z,32.28
2018-07-16T11:40:43.910Z,32.46
2018-07-16T11:41:43.860Z,32.35
2018-07-16T11:43:36.689Z,32.29
2018-07-16T11:44:36.648Z,32.24
2018-07-16T11:46:29.472Z,32.22
2018-07-16T11:47:29.415Z,32.06
2018-07-16T11:49:22.215Z,31.90
2018-07-16T11:50:22.167Z,31.64
2018-07-16T11:52:15.007Z,31.37
2018-07-16T11:53:14.933Z,30.94
2018-07-16T11:55:07.734Z,30.32
2018-07-16T11:56:07.692Z,30.18
2018-07-16T11:58:00.516Z,29.78
2018-07-16T11:59:00.554Z,29.78
2018-07-16T12:00:53.256Z,29.73
2018-07-16T12:01:53.267Z,29.70
2018-07-16T12:03:45.994Z,29.51
2018-07-16T12:04:45.939Z,29.33
2018-07-16T12:06:38.751Z,29.29
2018-07-16T12:07:38.689Z,29.17
2018-07-16T12:09:31.517Z,28.94
2018-07-16T12:10:31.459Z,28.85
2018-07-16T12:12:24.338Z,28.79
2018-07-16T12:13:24.207Z,28.72
2018-07-16T12:15:16.999Z,28.72
2018-07-16T12:16:16.943Z,28.73
2018-07-16T12:18:09.756Z,28.85
2018-07-16T12:19:09.692Z,28.85
2018-07-16T12:21:02.493Z,28.65
2018-07-16T12:22:02.432Z,28.73
2018-07-16T12:23:55.260Z,28.72
2018-07-16T12:24:55.199Z,28.62
2018-07-16T12:26:47.994Z,28.69
2018-07-16T12:27:47.926Z,28.73
2018-07-16T12:29:40.707Z,28.89
2018-07-16T12:30:40.668Z,28.82
2018-07-16T12:32:33.464Z,28.92
2018-07-16T12:33:33.414Z,29.00
2018-07-16T12:35:26.174Z,29.00
2018-07-16T12:36:26.132Z,29.08
2018-07-16T12:38:18.921Z,29.15
2018-07-16T12:39:18.859Z,29.05
2018-07-16T12:41:11.638Z,29.08
2018-07-16T12:42:11.590Z,29.00
2018-07-16T12:44:04.401Z,28.74
2018-07-16T12:45:04.344Z,28.79
2018-07-16T12:46:57.190Z,28.69
2018-07-16T12:47:57.068Z,28.70
2018-07-16T12:49:49.863Z,28.76
2018-07-16T12:50:49.807Z,28.70
2018-07-16T12:52:42.585Z,28.61
2018-07-16T12:53:42.522Z,28.73
2018-07-16T12:55:35.387Z,28.62
2018-07-16T12:56:35.253Z,28.73
2018-07-16T12:58:28.040Z,28.70
2018-07-16T12:59:27.968Z,28.61
2018-07-16T13:01:20.775Z,28.73
2018-07-16T13:02:20.706Z,28.76
2018-07-16T13:04:13.506Z,28.67
2018-07-16T13:05:13.428Z,28.74
2018-07-16T13:07:06.218Z,28.65
2018-07-16T13:08:06.166Z,28.67
2018-07-16T13:09:58.963Z,28.69
2018-07-16T13:10:58.887Z,28.64
2018-07-16T13:12:51.678Z,28.62
2018-07-16T13:13:51.614Z,28.64
2018-07-16T13:15:44.475Z,28.50
2018-07-16T13:16:44.335Z,28.39
2018-07-16T13:18:37.134Z,28.43
2018-07-16T13:19:37.060Z,28.51
2018-07-16T13:21:29.838Z,28.52
2018-07-16T13:22:29.780Z,28.55
2018-07-16T13:24:22.573Z,28.65
2018-07-16T13:25:22.505Z,28.64
2018-07-16T13:27:15.321Z,28.73
2018-07-16T13:28:15.262Z,28.70
2018-07-16T13:30:08.090Z,28.62
2018-07-16T13:31:08.006Z,28.76
2018-07-16T13:33:00.818Z,28.61
2018-07-16T13:34:00.742Z,28.76
2018-07-16T13:35:53.590Z,28.69
2018-07-16T13:36:53.467Z,28.65
2018-07-16T13:38:46.272Z,28.72
2018-07-16T13:39:46.215Z,28.73
2018-07-16T13:41:39.014Z,28.70
2018-07-16T13:42:38.943Z,28.57
2018-07-16T13:44:31.755Z,28.42
2018-07-16T13:45:31.668Z,28.42
2018-07-16T13:47:24.853Z,28.42
2018-07-16T13:48:24.400Z,28.46
2018-07-16T13:50:17.207Z,28.33
2018-07-16T13:51:17.132Z,28.48
2018-07-16T13:53:09.912Z,28.42
2018-07-16T13:54:09.857Z,28.45
2018-07-16T13:56:02.659Z,28.55
2018-07-16T13:57:02.708Z,28.57
2018-07-16T13:58:55.444Z,28.60
2018-07-16T13:59:55.333Z,28.57
2018-07-16T14:01:48.135Z,28.62
2018-07-16T14:02:48.057Z,28.60
2018-07-16T14:04:40.877Z,28.61
2018-07-16T14:05:40.813Z,28.60
2018-07-16T14:07:33.626Z,28.70
2018-07-16T14:08:33.560Z,28.72
2018-07-16T14:10:26.340Z,28.65
2018-07-16T14:11:26.282Z,28.74
2018-07-16T14:13:19.089Z,28.72
2018-07-16T14:14:19.030Z,28.82
2018-07-16T14:16:11.800Z,28.95
2018-07-16T14:17:11.731Z,29.03
2018-07-16T14:19:04.527Z,29.00
2018-07-16T14:20:04.457Z,29.18
2018-07-16T14:21:57.261Z,29.21
2018-07-16T14:22:57.199Z,29.36
2018-07-16T14:24:49.984Z,29.58
2018-07-16T14:25:49.915Z,29.60
2018-07-16T14:27:42.721Z,29.64
2018-07-16T14:28:42.638Z,29.73
2018-07-16T14:30:35.421Z,29.92
2018-07-16T14:31:35.366Z,29.74
2018-07-16T14:33:28.164Z,29.73
2018-07-16T14:34:28.089Z,29.85
2018-07-16T14:36:20.883Z,29.69
2018-07-16T14:37:20.819Z,29.66
2018-07-16T14:39:13.673Z,29.51
2018-07-16T14:40:13.560Z,29.52
2018-07-16T14:42:06.365Z,29.35
2018-07-16T14:43:06.302Z,29.12
2018-07-16T14:44:59.191Z,28.85
2018-07-16T14:45:59.026Z,28.62
2018-07-16T14:47:51.816Z,28.42
2018-07-16T14:48:51.755Z,28.36
2018-07-16T14:50:44.559Z,28.40
2018-07-16T14:51:44.511Z,28.42
2018-07-16T14:53:37.292Z,28.51
2018-07-16T14:54:37.223Z,28.45
2018-07-16T14:56:30.007Z,28.65
2018-07-16T14:57:29.952Z,28.67
2018-07-16T14:59:22.747Z,28.88
2018-07-16T15:00:22.677Z,28.89
2018-07-16T15:02:15.463Z,29.07
2018-07-16T15:03:15.412Z,29.12
2018-07-16T15:05:08.210Z,29.15
2018-07-16T15:06:08.141Z,29.26
2018-07-16T15:08:00.939Z,29.17
2018-07-16T15:09:00.877Z,29.05
2018-07-16T15:10:53.707Z,29.07
2018-07-16T15:11:53.652Z,29.27
2018-07-16T15:13:46.436Z,29.36
2018-07-16T15:14:46.373Z,29.35
2018-07-16T15:16:39.196Z,29.58
2018-07-16T15:17:39.129Z,29.52
2018-07-16T15:19:31.912Z,29.44
2018-07-16T15:20:31.910Z,29.47
2018-07-16T15:22:24.636Z,29.44
2018-07-16T15:23:24.589Z,29.48
2018-07-16T15:25:17.384Z,29.45
2018-07-16T15:26:17.312Z,29.41
2018-07-16T15:28:10.114Z,29.48
2018-07-16T15:29:10.040Z,29.54
2018-07-16T15:31:02.827Z,29.55
2018-07-16T15:32:02.800Z,29.67
2018-07-16T15:33:55.573Z,29.49
2018-07-16T15:34:55.495Z,29.58
2018-07-16T15:36:48.283Z,29.45
2018-07-16T15:37:48.223Z,29.39
2018-07-16T15:39:41.023Z,29.23
2018-07-16T15:40:40.951Z,29.14
2018-07-16T15:42:33.736Z,29.07
2018-07-16T15:43:33.689Z,28.98
2018-07-16T15:45:26.487Z,28.92
2018-07-16T15:46:26.403Z,28.92
2018-07-16T15:48:19.200Z,28.94
2018-07-16T15:49:19.126Z,28.80
2018-07-16T15:51:11.928Z,28.87
2018-07-16T15:52:11.849Z,28.98
2018-07-16T15:54:04.643Z,28.83
2018-07-16T15:55:04.589Z,28.62
2018-07-16T15:56:57.376Z,28.54
2018-07-16T15:57:57.319Z,28.54
2018-07-16T15:59:50.112Z,28.54
2018-07-16T16:00:50.047Z,28.58
2018-07-16T16:02:42.879Z,28.67
2018-07-16T16:03:42.784Z,28.65
2018-07-16T16:05:35.580Z,28.74
2018-07-16T16:06:35.507Z,28.60
2018-07-16T16:08:28.321Z,28.52
2018-07-16T16:09:28.247Z,28.50
2018-07-16T16:11:21.049Z,28.60
2018-07-16T16:12:20.980Z,28.55
2018-07-16T16:14:13.775Z,28.46
2018-07-16T16:15:13.713Z,28.32
2018-07-16T16:17:06.531Z,28.38
2018-07-16T16:18:06.477Z,28.21
2018-07-16T16:19:59.365Z,28.42
2018-07-16T16:20:59.195Z,28.51
2018-07-16T16:22:51.975Z,28.46
2018-07-16T16:23:51.932Z,28.42
2018-07-16T16:25:44.717Z,28.35
2018-07-16T16:26:44.643Z,28.32
2018-07-16T16:28:37.472Z,28.30
2018-07-16T16:29:37.414Z,28.38
2018-07-16T16:31:30.227Z,28.40
2018-07-16T16:32:30.156Z,28.40
2018-07-16T16:34:22.951Z,28.50
2018-07-16T16:35:22.879Z,28.45
2018-07-16T16:37:15.674Z,28.35
2018-07-16T16:38:15.604Z,28.21
2018-07-16T16:40:08.422Z,28.21
2018-07-16T16:41:08.346Z,28.23
2018-07-16T16:43:01.171Z,28.02
2018-07-16T16:44:01.078Z,27.84
2018-07-16T16:45:53.860Z,27.80
2018-07-16T16:46:53.804Z,27.69
2018-07-16T16:48:46.624Z,27.66
2018-07-16T16:49:46.558Z,27.66
2018-07-16T16:51:39.372Z,27.66
2018-07-16T16:52:39.304Z,27.77
2018-07-16T16:54:32.088Z,27.84
2018-07-16T16:55:32.035Z,27.87
2018-07-16T16:57:24.836Z,27.99
2018-07-16T16:58:24.829Z,27.98
2018-07-16T17:00:17.672Z,27.90
2018-07-16T17:01:17.515Z,27.95
2018-07-16T17:03:10.324Z,27.95
2018-07-16T17:04:10.252Z,27.98
2018-07-16T17:06:03.049Z,27.78
2018-07-16T17:07:02.995Z,27.77
2018-07-16T17:08:55.819Z,27.69
2018-07-16T17:09:55.730Z,27.71
2018-07-16T17:11:48.542Z,27.62
2018-07-16T17:12:48.471Z,27.58
2018-07-16T17:14:41.242Z,27.49
2018-07-16T17:15:41.184Z,27.50
2018-07-16T17:17:33.987Z,27.48
2018-07-16T17:18:33.929Z,27.49
2018-07-16T17:20:26.705Z,27.52
2018-07-16T17:21:26.650Z,27.48
2018-07-16T17:23:19.515Z,27.53
2018-07-16T17:24:19.361Z,27.43
2018-07-16T17:26:12.143Z,27.74
2018-07-16T17:27:12.083Z,28.20
2018-07-16T17:29:05.725Z,28.92
2018-07-16T17:30:05.667Z,29.02
2018-07-16T17:31:58.463Z,28.74
2018-07-16T17:32:58.407Z,28.64
2018-07-16T17:34:51.294Z,28.24
2018-07-16T17:35:51.123Z,28.13
2018-07-16T17:37:43.914Z,27.93
2018-07-16T17:38:43.845Z,27.90
2018-07-16T17:40:36.741Z,27.66
2018-07-16T17:41:36.688Z,27.66
2018-07-16T17:43:29.519Z,27.45
2018-07-16T17:44:29.385Z,27.35
2018-07-16T17:46:22.169Z,27.38
2018-07-16T17:47:22.104Z,27.34
2018-07-16T17:49:14.928Z,27.30
2018-07-16T17:50:14.860Z,27.21
2018-07-16T17:52:07.645Z,27.09
2018-07-16T17:53:07.600Z,27.20
2018-07-16T17:55:00.391Z,27.21
2018-07-16T17:56:00.328Z,27.23
2018-07-16T17:57:53.105Z,27.16
2018-07-16T17:58:53.051Z,27.16
2018-07-16T18:00:45.837Z,27.09
2018-07-16T18:01:45.799Z,27.05
2018-07-16T18:03:38.583Z,26.87
2018-07-16T18:04:38.508Z,26.93
2018-07-16T18:06:31.293Z,26.87
2018-07-16T18:07:31.263Z,27.01
2018-07-16T18:09:24.039Z,27.03
2018-07-16T18:10:23.977Z,27.09
2018-07-16T18:12:16.749Z,27.02
2018-07-16T18:13:16.756Z,27.01
2018-07-16T18:15:09.524Z,27.08
2018-07-16T18:16:09.437Z,27.09
2018-07-16T18:18:02.247Z,27.12
2018-07-16T18:19:02.183Z,27.09
2018-07-16T18:20:55.001Z,27.06
2018-07-16T18:21:54.912Z,26.96
2018-07-16T18:23:47.690Z,26.96
2018-07-16T18:24:47.629Z,26.97
2018-07-16T18:26:40.425Z,26.91
2018-07-16T18:27:40.353Z,26.75
2018-07-16T18:29:33.138Z,26.72
2018-07-16T18:30:33.081Z,26.78
2018-07-16T18:32:25.939Z,26.71